Terminal Aerodrome Forecast
Issued by NWS Charleston, SC

Home | Current Version | Previous Version | Text Only | Print | Product List | Glossary On
Versions: 1 2 3 4 5 6 7 8 9 10 11 12 13 14 15 16 17 18
000
FTUS42 KCHS 010210 AAB
TAFCHS
TAF AMD
KCHS 010210Z 0102/0124 05008KT P6SM -RA SCT025 OVC040
     FM010330 05010KT P6SM -RA SCT015 OVC025 WS020/09035KT
     FM010500 03012G17KT P6SM -RA OVC015 WS020/09035KT
     FM011100 03009KT 6SM -RA BR OVC008
     FM011700 VRB06KT 5SM -DZ BR OVC006=

USA.gov is the U.S. government's official web portal to all federal, state and local government web resources and services.